sensor_id;sensor_type;location;lat;lon;timestamp;P1;durP1;ratioP1;P2;durP2;ratioP2
77581;SDS011;66726;52.388;9.986;2023-02-24T00:01:54;23.75;;;6.60;;
77581;SDS011;66726;52.388;9.986;2023-02-24T00:04:27;29.35;;;6.78;;
77581;SDS011;66726;52.388;9.986;2023-02-24T00:06:57;26.02;;;7.07;;
77581;SDS011;66726;52.388;9.986;2023-02-24T00:09:26;24.75;;;6.13;;
77581;SDS011;66726;52.388;9.986;2023-02-24T00:11:57;25.85;;;7.10;;
77581;SDS011;66726;52.388;9.986;2023-02-24T00:14:30;21.77;;;5.93;;
77581;SDS011;66726;52.388;9.986;2023-02-24T00:17:01;26.55;;;6.82;;
77581;SDS011;66726;52.388;9.986;2023-02-24T00:19:30;26.05;;;6.30;;
77581;SDS011;66726;52.388;9.986;2023-02-24T00:21:59;27.42;;;6.60;;
77581;SDS011;66726;52.388;9.986;2023-02-24T00:24:28;26.77;;;6.68;;
77581;SDS011;66726;52.388;9.986;2023-02-24T00:26:58;21.00;;;5.53;;
77581;SDS011;66726;52.388;9.986;2023-02-24T00:29:34;28.00;;;5.70;;
77581;SDS011;66726;52.388;9.986;2023-02-24T00:32:02;25.70;;;5.93;;
77581;SDS011;66726;52.388;9.986;2023-02-24T00:34:34;23.48;;;5.93;;
77581;SDS011;66726;52.388;9.986;2023-02-24T00:37:03;23.27;;;6.32;;
77581;SDS011;66726;52.388;9.986;2023-02-24T00:39:33;24.98;;;6.60;;
77581;SDS011;66726;52.388;9.986;2023-02-24T00:42:06;24.42;;;6.03;;
77581;SDS011;66726;52.388;9.986;2023-02-24T00:44:36;23.33;;;6.10;;
77581;SDS011;66726;52.388;9.986;2023-02-24T00:47:07;25.50;;;5.50;;
77581;SDS011;66726;52.388;9.986;2023-02-24T00:49:37;22.77;;;5.90;;
77581;SDS011;66726;52.388;9.986;2023-02-24T00:52:08;22.75;;;5.88;;
77581;SDS011;66726;52.388;9.986;2023-02-24T00:54:39;22.25;;;5.53;;
77581;SDS011;66726;52.388;9.986;2023-02-24T00:57:07;24.20;;;5.80;;
77581;SDS011;66726;52.388;9.986;2023-02-24T00:59:37;24.98;;;5.82;;
77581;SDS011;66726;52.388;9.986;2023-02-24T01:02:05;23.05;;;5.53;;
77581;SDS011;66726;52.388;9.986;2023-02-24T01:04:36;23.52;;;6.03;;
77581;SDS011;66726;52.388;9.986;2023-02-24T01:07:05;19.90;;;5.18;;
77581;SDS011;66726;52.388;9.986;2023-02-24T01:09:36;23.02;;;5.82;;
77581;SDS011;66726;52.388;9.986;2023-02-24T01:12:07;23.40;;;5.68;;
77581;SDS011;66726;52.388;9.986;2023-02-24T01:15:05;21.38;;;5.30;;
77581;SDS011;66726;52.388;9.986;2023-02-24T01:17:36;20.70;;;4.82;;
77581;SDS011;66726;52.388;9.986;2023-02-24T01:20:05;20.65;;;5.35;;
77581;SDS011;66726;52.388;9.986;2023-02-24T01:22:42;21.50;;;4.93;;
77581;SDS011;66726;52.388;9.986;2023-02-24T01:25:12;23.23;;;5.10;;
77581;SDS011;66726;52.388;9.986;2023-02-24T01:27:40;20.30;;;4.85;;
77581;SDS011;66726;52.388;9.986;2023-02-24T01:30:11;18.85;;;4.47;;
77581;SDS011;66726;52.388;9.986;2023-02-24T01:32:42;21.33;;;4.85;;
77581;SDS011;66726;52.388;9.986;2023-02-24T01:35:11;18.00;;;4.35;;
77581;SDS011;66726;52.388;9.986;2023-02-24T01:37:40;19.77;;;4.60;;
77581;SDS011;66726;52.388;9.986;2023-02-24T01:40:10;22.77;;;4.60;;
77581;SDS011;66726;52.388;9.986;2023-02-24T01:42:43;20.00;;;4.50;;
77581;SDS011;66726;52.388;9.986;2023-02-24T01:45:18;19.20;;;4.95;;
77581;SDS011;66726;52.388;9.986;2023-02-24T01:47:55;17.67;;;4.10;;
77581;SDS011;66726;52.388;9.986;2023-02-24T01:50:27;19.17;;;5.13;;
77581;SDS011;66726;52.388;9.986;2023-02-24T01:52:58;19.20;;;4.63;;
77581;SDS011;66726;52.388;9.986;2023-02-24T01:55:32;19.63;;;4.65;;
77581;SDS011;66726;52.388;9.986;2023-02-24T01:58:09;25.85;;;5.00;;
77581;SDS011;66726;52.388;9.986;2023-02-24T02:00:46;19.33;;;4.80;;
77581;SDS011;66726;52.388;9.986;2023-02-24T02:03:16;19.08;;;5.00;;
77581;SDS011;66726;52.388;9.986;2023-02-24T02:05:51;24.27;;;5.20;;
77581;SDS011;66726;52.388;9.986;2023-02-24T02:08:24;19.90;;;4.80;;
77581;SDS011;66726;52.388;9.986;2023-02-24T02:10:53;21.20;;;4.90;;
77581;SDS011;66726;52.388;9.986;2023-02-24T02:13:28;18.70;;;4.97;;
77581;SDS011;66726;52.388;9.986;2023-02-24T02:16:04;20.25;;;5.10;;
77581;SDS011;66726;52.388;9.986;2023-02-24T02:18:58;19.95;;;4.70;;
77581;SDS011;66726;52.388;9.986;2023-02-24T02:22:00;18.00;;;4.60;;
77581;SDS011;66726;52.388;9.986;2023-02-24T02:24:45;17.25;;;4.07;;
77581;SDS011;66726;52.388;9.986;2023-02-24T02:30:37;19.38;;;4.30;;
77581;SDS011;66726;52.388;9.986;2023-02-24T02:33:44;19.50;;;4.60;;
77581;SDS011;66726;52.388;9.986;2023-02-24T02:36:43;15.57;;;4.18;;
77581;SDS011;66726;52.388;9.986;2023-02-24T02:39:24;18.13;;;4.43;;
77581;SDS011;66726;52.388;9.986;2023-02-24T02:42:07;15.90;;;4.05;;
77581;SDS011;66726;52.388;9.986;2023-02-24T02:44:50;15.75;;;4.25;;
77581;SDS011;66726;52.388;9.986;2023-02-24T02:47:33;13.23;;;3.97;;
77581;SDS011;66726;52.388;9.986;2023-02-24T02:50:11;13.10;;;3.73;;
77581;SDS011;66726;52.388;9.986;2023-02-24T02:52:46;16.23;;;3.75;;
77581;SDS011;66726;52.388;9.986;2023-02-24T02:55:25;16.58;;;4.00;;
77581;SDS011;66726;52.388;9.986;2023-02-24T02:58:04;12.43;;;3.30;;
77581;SDS011;66726;52.388;9.986;2023-02-24T03:00:41;14.82;;;4.05;;
77581;SDS011;66726;52.388;9.986;2023-02-24T03:03:23;14.15;;;3.70;;
77581;SDS011;66726;52.388;9.986;2023-02-24T03:05:55;14.90;;;3.90;;
77581;SDS011;66726;52.388;9.986;2023-02-24T03:08:30;15.47;;;4.13;;
77581;SDS011;66726;52.388;9.986;2023-02-24T03:11:06;15.80;;;4.50;;
77581;SDS011;66726;52.388;9.986;2023-02-24T03:13:42;15.93;;;4.22;;
77581;SDS011;66726;52.388;9.986;2023-02-24T03:16:16;16.08;;;4.10;;
77581;SDS011;66726;52.388;9.986;2023-02-24T03:18:49;15.60;;;4.53;;
77581;SDS011;66726;52.388;9.986;2023-02-24T03:21:25;16.73;;;4.27;;
77581;SDS011;66726;52.388;9.986;2023-02-24T03:24:00;16.55;;;4.00;;
77581;SDS011;66726;52.388;9.986;2023-02-24T03:26:31;15.38;;;4.45;;
77581;SDS011;66726;52.388;9.986;2023-02-24T03:29:09;17.13;;;3.90;;
77581;SDS011;66726;52.388;9.986;2023-02-24T03:31:45;14.73;;;4.03;;
77581;SDS011;66726;52.388;9.986;2023-02-24T03:34:20;13.32;;;4.03;;
77581;SDS011;66726;52.388;9.986;2023-02-24T03:36:57;13.90;;;4.07;;
77581;SDS011;66726;52.388;9.986;2023-02-24T03:39:27;15.45;;;3.85;;
77581;SDS011;66726;52.388;9.986;2023-02-24T03:41:56;17.13;;;3.95;;
77581;SDS011;66726;52.388;9.986;2023-02-24T03:44:31;15.40;;;4.25;;
77581;SDS011;66726;52.388;9.986;2023-02-24T03:47:00;15.80;;;3.78;;
77581;SDS011;66726;52.388;9.986;2023-02-24T03:49:28;13.25;;;3.65;;
77581;SDS011;66726;52.388;9.986;2023-02-24T03:52:01;15.82;;;3.78;;
77581;SDS011;66726;52.388;9.986;2023-02-24T03:54:43;12.43;;;3.60;;
77581;SDS011;66726;52.388;9.986;2023-02-24T03:57:37;14.95;;;3.70;;
77581;SDS011;66726;52.388;9.986;2023-02-24T04:00:26;12.25;;;3.40;;
77581;SDS011;66726;52.388;9.986;2023-02-24T04:03:12;10.52;;;3.30;;
77581;SDS011;66726;52.388;9.986;2023-02-24T04:05:55;12.45;;;3.40;;
77581;SDS011;66726;52.388;9.986;2023-02-24T04:08:43;13.20;;;3.40;;
77581;SDS011;66726;52.388;9.986;2023-02-24T04:11:21;11.65;;;3.50;;
77581;SDS011;66726;52.388;9.986;2023-02-24T04:13:57;12.88;;;3.70;;
77581;SDS011;66726;52.388;9.986;2023-02-24T04:16:33;13.93;;;3.50;;
77581;SDS011;66726;52.388;9.986;2023-02-24T04:19:07;11.77;;;3.37;;
77581;SDS011;66726;52.388;9.986;2023-02-24T04:21:40;13.88;;;3.20;;
77581;SDS011;66726;52.388;9.986;2023-02-24T04:24:15;13.90;;;3.60;;
77581;SDS011;66726;52.388;9.986;2023-02-24T04:26:48;14.35;;;3.72;;
77581;SDS011;66726;52.388;9.986;2023-02-24T04:29:20;11.95;;;3.40;;
77581;SDS011;66726;52.388;9.986;2023-02-24T04:31:53;12.25;;;3.30;;
77581;SDS011;66726;52.388;9.986;2023-02-24T04:34:29;13.02;;;3.22;;
77581;SDS011;66726;52.388;9.986;2023-02-24T04:36:58;12.93;;;3.23;;
77581;SDS011;66726;52.388;9.986;2023-02-24T04:39:29;12.18;;;3.42;;
77581;SDS011;66726;52.388;9.986;2023-02-24T04:41:58;13.38;;;3.00;;
77581;SDS011;66726;52.388;9.986;2023-02-24T04:44:27;10.23;;;3.10;;
77581;SDS011;66726;52.388;9.986;2023-02-24T04:46:55;12.75;;;3.22;;
77581;SDS011;66726;52.388;9.986;2023-02-24T04:49:24;11.35;;;3.22;;
77581;SDS011;66726;52.388;9.986;2023-02-24T04:51:52;12.60;;;2.83;;
77581;SDS011;66726;52.388;9.986;2023-02-24T04:54:22;8.43;;;2.78;;
77581;SDS011;66726;52.388;9.986;2023-02-24T04:56:51;9.75;;;3.13;;
77581;SDS011;66726;52.388;9.986;2023-02-24T04:59:20;12.38;;;3.03;;
77581;SDS011;66726;52.388;9.986;2023-02-24T05:01:50;12.00;;;3.25;;
77581;SDS011;66726;52.388;9.986;2023-02-24T05:04:20;9.77;;;3.00;;
77581;SDS011;66726;52.388;9.986;2023-02-24T05:06:49;11.35;;;2.78;;
77581;SDS011;66726;52.388;9.986;2023-02-24T05:09:17;12.82;;;2.72;;
77581;SDS011;66726;52.388;9.986;2023-02-24T05:11:46;11.23;;;2.83;;
77581;SDS011;66726;52.388;9.986;2023-02-24T05:14:19;9.30;;;3.67;;
77581;SDS011;66726;52.388;9.986;2023-02-24T05:16:48;11.93;;;3.60;;
77581;SDS011;66726;52.388;9.986;2023-02-24T05:19:18;12.90;;;4.57;;
77581;SDS011;66726;52.388;9.986;2023-02-24T05:22:04;10.52;;;3.30;;
77581;SDS011;66726;52.388;9.986;2023-02-24T05:24:35;10.90;;;3.30;;
77581;SDS011;66726;52.388;9.986;2023-02-24T05:27:03;12.10;;;3.00;;
77581;SDS011;66726;52.388;9.986;2023-02-24T05:29:33;10.60;;;2.73;;
77581;SDS011;66726;52.388;9.986;2023-02-24T05:32:03;10.75;;;2.75;;
77581;SDS011;66726;52.388;9.986;2023-02-24T05:34:33;11.32;;;2.63;;
77581;SDS011;66726;52.388;9.986;2023-02-24T05:37:04;13.93;;;3.13;;
77581;SDS011;66726;52.388;9.986;2023-02-24T05:39:35;8.65;;;2.55;;
77581;SDS011;66726;52.388;9.986;2023-02-24T05:42:04;11.35;;;3.00;;
77581;SDS011;66726;52.388;9.986;2023-02-24T05:44:34;12.75;;;3.47;;
77581;SDS011;66726;52.388;9.986;2023-02-24T05:47:02;10.18;;;3.30;;
77581;SDS011;66726;52.388;9.986;2023-02-24T05:49:31;9.80;;;2.92;;
77581;SDS011;66726;52.388;9.986;2023-02-24T05:52:05;13.30;;;3.00;;
77581;SDS011;66726;52.388;9.986;2023-02-24T05:54:35;11.25;;;3.17;;
77581;SDS011;66726;52.388;9.986;2023-02-24T05:57:08;13.07;;;3.45;;
77581;SDS011;66726;52.388;9.986;2023-02-24T05:59:39;9.13;;;3.00;;
77581;SDS011;66726;52.388;9.986;2023-02-24T06:02:11;10.45;;;3.20;;
77581;SDS011;66726;52.388;9.986;2023-02-24T06:04:48;10.95;;;3.50;;
77581;SDS011;66726;52.388;9.986;2023-02-24T06:07:19;8.38;;;3.22;;
77581;SDS011;66726;52.388;9.986;2023-02-24T06:09:52;16.20;;;4.63;;
77581;SDS011;66726;52.388;9.986;2023-02-24T06:12:23;14.10;;;4.57;;
77581;SDS011;66726;52.388;9.986;2023-02-24T06:14:56;13.30;;;4.57;;
77581;SDS011;66726;52.388;9.986;2023-02-24T06:17:24;11.77;;;3.88;;
77581;SDS011;66726;52.388;9.986;2023-02-24T06:19:53;14.93;;;3.72;;
77581;SDS011;66726;52.388;9.986;2023-02-24T06:22:23;13.15;;;4.68;;
77581;SDS011;66726;52.388;9.986;2023-02-24T06:24:53;12.73;;;4.65;;
77581;SDS011;66726;52.388;9.986;2023-02-24T06:27:22;13.35;;;4.60;;
77581;SDS011;66726;52.388;9.986;2023-02-24T06:29:51;11.68;;;5.00;;
77581;SDS011;66726;52.388;9.986;2023-02-24T06:32:24;13.65;;;5.38;;
77581;SDS011;66726;52.388;9.986;2023-02-24T06:34:53;14.40;;;5.07;;
77581;SDS011;66726;52.388;9.986;2023-02-24T06:37:22;11.68;;;4.90;;
77581;SDS011;66726;52.388;9.986;2023-02-24T06:39:51;12.80;;;5.63;;
77581;SDS011;66726;52.388;9.986;2023-02-24T06:42:19;13.95;;;5.97;;
77581;SDS011;66726;52.388;9.986;2023-02-24T06:44:47;12.23;;;6.00;;
77581;SDS011;66726;52.388;9.986;2023-02-24T06:47:15;14.57;;;6.70;;
77581;SDS011;66726;52.388;9.986;2023-02-24T06:49:45;13.65;;;5.85;;
77581;SDS011;66726;52.388;9.986;2023-02-24T06:52:13;13.18;;;5.88;;
77581;SDS011;66726;52.388;9.986;2023-02-24T06:54:45;13.10;;;6.00;;
77581;SDS011;66726;52.388;9.986;2023-02-24T06:57:17;14.33;;;5.50;;
77581;SDS011;66726;52.388;9.986;2023-02-24T06:59:45;12.18;;;4.90;;
77581;SDS011;66726;52.388;9.986;2023-02-24T07:02:14;11.75;;;4.78;;
77581;SDS011;66726;52.388;9.986;2023-02-24T07:04:45;12.20;;;4.87;;
77581;SDS011;66726;52.388;9.986;2023-02-24T07:07:13;11.63;;;5.45;;
77581;SDS011;66726;52.388;9.986;2023-02-24T07:09:42;14.05;;;6.53;;
77581;SDS011;66726;52.388;9.986;2023-02-24T07:12:11;15.02;;;6.30;;
77581;SDS011;66726;52.388;9.986;2023-02-24T07:14:46;14.27;;;5.68;;
77581;SDS011;66726;52.388;9.986;2023-02-24T07:17:15;10.32;;;4.60;;
77581;SDS011;66726;52.388;9.986;2023-02-24T07:19:46;16.42;;;4.88;;
77581;SDS011;66726;52.388;9.986;2023-02-24T07:22:14;11.27;;;4.60;;
77581;SDS011;66726;52.388;9.986;2023-02-24T07:24:42;11.15;;;4.30;;
77581;SDS011;66726;52.388;9.986;2023-02-24T07:27:12;9.73;;;3.88;;
77581;SDS011;66726;52.388;9.986;2023-02-24T07:29:48;9.65;;;4.22;;
77581;SDS011;66726;52.388;9.986;2023-02-24T07:32:19;9.05;;;3.60;;
77581;SDS011;66726;52.388;9.986;2023-02-24T07:34:50;10.18;;;3.83;;
77581;SDS011;66726;52.388;9.986;2023-02-24T07:37:18;10.73;;;3.50;;
77581;SDS011;66726;52.388;9.986;2023-02-24T07:39:48;8.93;;;3.63;;
77581;SDS011;66726;52.388;9.986;2023-02-24T07:42:16;11.85;;;4.65;;
77581;SDS011;66726;52.388;9.986;2023-02-24T07:44:45;13.25;;;4.50;;
77581;SDS011;66726;52.388;9.986;2023-02-24T07:47:14;11.27;;;4.95;;
77581;SDS011;66726;52.388;9.986;2023-02-24T07:49:43;10.30;;;4.40;;
77581;SDS011;66726;52.388;9.986;2023-02-24T07:52:14;12.45;;;4.40;;
77581;SDS011;66726;52.388;9.986;2023-02-24T07:54:42;12.23;;;4.10;;
77581;SDS011;66726;52.388;9.986;2023-02-24T07:57:10;10.68;;;4.47;;
77581;SDS011;66726;52.388;9.986;2023-02-24T07:59:40;11.70;;;4.32;;
77581;SDS011;66726;52.388;9.986;2023-02-24T08:02:11;11.60;;;5.00;;
77581;SDS011;66726;52.388;9.986;2023-02-24T08:04:40;13.80;;;5.70;;
77581;SDS011;66726;52.388;9.986;2023-02-24T08:07:16;13.10;;;6.10;;
77581;SDS011;66726;52.388;9.986;2023-02-24T08:09:50;12.20;;;5.57;;
77581;SDS011;66726;52.388;9.986;2023-02-24T08:12:40;12.15;;;5.57;;
77581;SDS011;66726;52.388;9.986;2023-02-24T08:15:09;13.73;;;5.57;;
77581;SDS011;66726;52.388;9.986;2023-02-24T08:17:49;14.85;;;6.70;;
77581;SDS011;66726;52.388;9.986;2023-02-24T08:20:25;12.43;;;5.90;;
77581;SDS011;66726;52.388;9.986;2023-02-24T08:23:02;14.15;;;5.97;;
77581;SDS011;66726;52.388;9.986;2023-02-24T08:25:33;10.32;;;4.40;;
77581;SDS011;66726;52.388;9.986;2023-02-24T08:28:02;10.57;;;4.32;;
77581;SDS011;66726;52.388;9.986;2023-02-24T08:30:37;11.00;;;4.70;;
77581;SDS011;66726;52.388;9.986;2023-02-24T08:33:12;11.77;;;5.93;;
77581;SDS011;66726;52.388;9.986;2023-02-24T08:35:49;14.75;;;5.10;;
77581;SDS011;66726;52.388;9.986;2023-02-24T08:38:28;11.30;;;3.57;;
77581;SDS011;66726;52.388;9.986;2023-02-24T08:41:10;11.65;;;3.40;;
77581;SDS011;66726;52.388;9.986;2023-02-24T08:43:43;10.45;;;3.20;;
77581;SDS011;66726;52.388;9.986;2023-02-24T08:46:13;8.93;;;3.42;;
77581;SDS011;66726;52.388;9.986;2023-02-24T08:48:47;7.65;;;2.90;;
77581;SDS011;66726;52.388;9.986;2023-02-24T08:51:21;7.53;;;2.58;;
77581;SDS011;66726;52.388;9.986;2023-02-24T08:53:56;11.50;;;3.35;;
77581;SDS011;66726;52.388;9.986;2023-02-24T08:56:27;9.98;;;2.72;;
77581;SDS011;66726;52.388;9.986;2023-02-24T08:59:00;10.10;;;3.30;;
77581;SDS011;66726;52.388;9.986;2023-02-24T09:01:32;9.98;;;2.83;;
77581;SDS011;66726;52.388;9.986;2023-02-24T09:04:05;9.52;;;2.90;;
77581;SDS011;66726;52.388;9.986;2023-02-24T09:06:37;9.73;;;3.10;;
77581;SDS011;66726;52.388;9.986;2023-02-24T09:09:14;10.80;;;3.25;;
77581;SDS011;66726;52.388;9.986;2023-02-24T09:11:46;12.10;;;4.20;;
77581;SDS011;66726;52.388;9.986;2023-02-24T09:14:21;11.35;;;4.00;;
77581;SDS011;66726;52.388;9.986;2023-02-24T09:16:55;9.63;;;3.22;;
77581;SDS011;66726;52.388;9.986;2023-02-24T09:19:36;13.73;;;4.13;;
77581;SDS011;66726;52.388;9.986;2023-02-24T09:22:29;12.77;;;3.65;;
77581;SDS011;66726;52.388;9.986;2023-02-24T09:25:00;13.20;;;4.00;;
77581;SDS011;66726;52.388;9.986;2023-02-24T09:27:49;10.25;;;3.10;;
77581;SDS011;66726;52.388;9.986;2023-02-24T09:30:22;11.82;;;3.10;;
77581;SDS011;66726;52.388;9.986;2023-02-24T09:33:05;11.27;;;3.05;;
77581;SDS011;66726;52.388;9.986;2023-02-24T09:35:51;10.45;;;3.15;;
77581;SDS011;66726;52.388;9.986;2023-02-24T09:38:28;9.50;;;3.45;;
77581;SDS011;66726;52.388;9.986;2023-02-24T09:41:22;11.50;;;3.17;;
77581;SDS011;66726;52.388;9.986;2023-02-24T09:43:59;14.70;;;6.03;;
77581;SDS011;66726;52.388;9.986;2023-02-24T09:46:35;11.25;;;3.70;;
77581;SDS011;66726;52.388;9.986;2023-02-24T09:49:19;13.18;;;3.78;;
77581;SDS011;66726;52.388;9.986;2023-02-24T09:51:53;11.38;;;3.90;;
77581;SDS011;66726;52.388;9.986;2023-02-24T09:54:34;12.50;;;3.67;;
77581;SDS011;66726;52.388;9.986;2023-02-24T09:57:04;13.20;;;3.70;;
77581;SDS011;66726;52.388;9.986;2023-02-24T09:59:46;13.27;;;4.00;;
77581;SDS011;66726;52.388;9.986;2023-02-24T10:02:48;13.07;;;4.10;;
77581;SDS011;66726;52.388;9.986;2023-02-24T10:05:26;12.48;;;4.45;;
77581;SDS011;66726;52.388;9.986;2023-02-24T10:08:04;13.27;;;3.88;;
77581;SDS011;66726;52.388;9.986;2023-02-24T10:10:45;14.43;;;4.53;;
77581;SDS011;66726;52.388;9.986;2023-02-24T10:13:35;16.02;;;5.05;;
77581;SDS011;66726;52.388;9.986;2023-02-24T10:16:13;12.57;;;4.30;;
77581;SDS011;66726;52.388;9.986;2023-02-24T10:18:50;10.82;;;4.32;;
77581;SDS011;66726;52.388;9.986;2023-02-24T10:21:38;13.98;;;5.05;;
77581;SDS011;66726;52.388;9.986;2023-02-24T10:24:16;16.50;;;6.15;;
77581;SDS011;66726;52.388;9.986;2023-02-24T10:26:55;13.30;;;5.07;;
77581;SDS011;66726;52.388;9.986;2023-02-24T10:29:39;12.85;;;4.60;;
77581;SDS011;66726;52.388;9.986;2023-02-24T10:32:38;13.60;;;4.90;;
77581;SDS011;66726;52.388;9.986;2023-02-24T10:35:14;10.98;;;4.00;;
77581;SDS011;66726;52.388;9.986;2023-02-24T10:37:45;10.77;;;4.10;;
77581;SDS011;66726;52.388;9.986;2023-02-24T10:40:14;11.45;;;3.65;;
77581;SDS011;66726;52.388;9.986;2023-02-24T10:43:01;15.63;;;4.22;;
77581;SDS011;66726;52.388;9.986;2023-02-24T10:45:38;13.90;;;4.57;;
77581;SDS011;66726;52.388;9.986;2023-02-24T10:48:15;13.93;;;5.00;;
77581;SDS011;66726;52.388;9.986;2023-02-24T10:51:07;11.45;;;4.30;;
77581;SDS011;66726;52.388;9.986;2023-02-24T10:53:45;13.18;;;4.68;;
77581;SDS011;66726;52.388;9.986;2023-02-24T10:56:38;10.63;;;4.67;;
77581;SDS011;66726;52.388;9.986;2023-02-24T10:59:10;11.75;;;4.70;;
77581;SDS011;66726;52.388;9.986;2023-02-24T11:02:17;11.43;;;4.53;;
77581;SDS011;66726;52.388;9.986;2023-02-24T11:04:58;12.77;;;4.90;;
77581;SDS011;66726;52.388;9.986;2023-02-24T11:08:03;17.00;;;5.78;;
77581;SDS011;66726;52.388;9.986;2023-02-24T11:10:37;15.32;;;5.78;;
77581;SDS011;66726;52.388;9.986;2023-02-24T11:13:18;11.73;;;5.43;;
77581;SDS011;66726;52.388;9.986;2023-02-24T11:16:06;14.57;;;5.95;;
77581;SDS011;66726;52.388;9.986;2023-02-24T11:18:55;11.65;;;5.50;;
77581;SDS011;66726;52.388;9.986;2023-02-24T11:21:24;11.65;;;5.07;;
77581;SDS011;66726;52.388;9.986;2023-02-24T11:23:55;11.75;;;4.45;;
77581;SDS011;66726;52.388;9.986;2023-02-24T11:26:30;12.15;;;5.10;;
77581;SDS011;66726;52.388;9.986;2023-02-24T11:29:10;12.05;;;5.03;;
77581;SDS011;66726;52.388;9.986;2023-02-24T11:35:01;8.45;;;3.92;;
77581;SDS011;66726;52.388;9.986;2023-02-24T11:37:39;10.00;;;4.60;;
77581;SDS011;66726;52.388;9.986;2023-02-24T11:40:12;9.38;;;4.28;;
77581;SDS011;66726;52.388;9.986;2023-02-24T11:42:50;8.87;;;4.53;;
77581;SDS011;66726;52.388;9.986;2023-02-24T11:45:26;9.93;;;5.10;;
77581;SDS011;66726;52.388;9.986;2023-02-24T11:48:01;7.25;;;4.50;;
77581;SDS011;66726;52.388;9.986;2023-02-24T11:50:42;6.93;;;4.20;;
77581;SDS011;66726;52.388;9.986;2023-02-24T11:53:25;8.45;;;4.55;;
77581;SDS011;66726;52.388;9.986;2023-02-24T11:56:01;6.90;;;4.22;;
77581;SDS011;66726;52.388;9.986;2023-02-24T11:58:36;8.65;;;6.03;;
77581;SDS011;66726;52.388;9.986;2023-02-24T12:01:13;5.90;;;4.18;;
77581;SDS011;66726;52.388;9.986;2023-02-24T12:03:50;6.80;;;4.75;;
77581;SDS011;66726;52.388;9.986;2023-02-24T12:06:29;6.78;;;4.38;;
77581;SDS011;66726;52.388;9.986;2023-02-24T12:09:07;6.93;;;4.45;;
77581;SDS011;66726;52.388;9.986;2023-02-24T12:11:43;5.90;;;4.63;;
77581;SDS011;66726;52.388;9.986;2023-02-24T12:14:24;7.18;;;4.53;;
77581;SDS011;66726;52.388;9.986;2023-02-24T12:17:01;6.90;;;4.82;;
77581;SDS011;66726;52.388;9.986;2023-02-24T12:19:47;5.60;;;4.67;;
77581;SDS011;66726;52.388;9.986;2023-02-24T12:22:27;6.18;;;4.18;;
77581;SDS011;66726;52.388;9.986;2023-02-24T12:25:12;6.60;;;4.10;;
77581;SDS011;66726;52.388;9.986;2023-02-24T12:27:45;4.95;;;3.80;;
77581;SDS011;66726;52.388;9.986;2023-02-24T12:30:53;4.75;;;3.70;;
77581;SDS011;66726;52.388;9.986;2023-02-24T12:33:45;4.95;;;3.80;;
77581;SDS011;66726;52.388;9.986;2023-02-24T12:36:35;4.80;;;3.90;;
77581;SDS011;66726;52.388;9.986;2023-02-24T12:39:29;6.15;;;4.60;;
77581;SDS011;66726;52.388;9.986;2023-02-24T12:42:11;5.13;;;3.90;;
77581;SDS011;66726;52.388;9.986;2023-02-24T12:44:51;4.80;;;3.83;;
77581;SDS011;66726;52.388;9.986;2023-02-24T12:47:33;4.90;;;3.83;;
77581;SDS011;66726;52.388;9.986;2023-02-24T12:50:23;3.90;;;3.50;;
77581;SDS011;66726;52.388;9.986;2023-02-24T12:53:10;8.80;;;4.38;;
77581;SDS011;66726;52.388;9.986;2023-02-24T12:55:52;8.15;;;4.50;;
77581;SDS011;66726;52.388;9.986;2023-02-24T12:58:33;4.82;;;3.92;;
77581;SDS011;66726;52.388;9.986;2023-02-24T13:01:11;4.93;;;4.18;;
77581;SDS011;66726;52.388;9.986;2023-02-24T13:03:55;7.00;;;4.38;;
77581;SDS011;66726;52.388;9.986;2023-02-24T13:06:51;4.78;;;4.13;;
77581;SDS011;66726;52.388;9.986;2023-02-24T13:09:36;4.00;;;3.70;;
77581;SDS011;66726;52.388;9.986;2023-02-24T13:12:16;4.90;;;4.20;;
77581;SDS011;66726;52.388;9.986;2023-02-24T13:14:54;5.00;;;4.50;;
77581;SDS011;66726;52.388;9.986;2023-02-24T13:17:23;8.30;;;4.50;;
77581;SDS011;66726;52.388;9.986;2023-02-24T13:19:53;5.32;;;4.82;;
77581;SDS011;66726;52.388;9.986;2023-02-24T13:22:24;7.75;;;6.18;;
77581;SDS011;66726;52.388;9.986;2023-02-24T13:27:55;5.28;;;4.82;;
77581;SDS011;66726;52.388;9.986;2023-02-24T13:30:33;5.20;;;4.80;;
77581;SDS011;66726;52.388;9.986;2023-02-24T13:33:17;5.40;;;4.90;;
77581;SDS011;66726;52.388;9.986;2023-02-24T13:35:51;6.10;;;5.60;;
77581;SDS011;66726;52.388;9.986;2023-02-24T13:38:41;6.53;;;6.03;;
77581;SDS011;66726;52.388;9.986;2023-02-24T13:41:34;5.60;;;5.10;;
77581;SDS011;66726;52.388;9.986;2023-02-24T13:44:22;6.32;;;5.60;;
77581;SDS011;66726;52.388;9.986;2023-02-24T13:50:19;6.03;;;5.50;;
77581;SDS011;66726;52.388;9.986;2023-02-24T13:52:55;5.68;;;5.18;;
77581;SDS011;66726;52.388;9.986;2023-02-24T13:56:02;5.35;;;4.82;;
77581;SDS011;66726;52.388;9.986;2023-02-24T13:58:55;6.18;;;5.68;;
77581;SDS011;66726;52.388;9.986;2023-02-24T14:01:45;5.50;;;5.10;;
77581;SDS011;66726;52.388;9.986;2023-02-24T14:04:17;6.13;;;5.57;;
77581;SDS011;66726;52.388;9.986;2023-02-24T14:06:55;6.07;;;5.57;;
77581;SDS011;66726;52.388;9.986;2023-02-24T14:09:29;6.60;;;6.10;;
77581;SDS011;66726;52.388;9.986;2023-02-24T14:12:02;7.30;;;6.60;;
77581;SDS011;66726;52.388;9.986;2023-02-24T14:14:41;7.60;;;7.00;;
77581;SDS011;66726;52.388;9.986;2023-02-24T14:17:19;7.15;;;6.55;;
77581;SDS011;66726;52.388;9.986;2023-02-24T14:19:54;6.97;;;6.28;;
77581;SDS011;66726;52.388;9.986;2023-02-24T14:22:41;7.57;;;6.97;;
77581;SDS011;66726;52.388;9.986;2023-02-24T14:25:11;7.53;;;6.80;;
77581;SDS011;66726;52.388;9.986;2023-02-24T14:27:41;7.30;;;6.60;;
77581;SDS011;66726;52.388;9.986;2023-02-24T14:30:19;7.82;;;7.22;;
77581;SDS011;66726;52.388;9.986;2023-02-24T14:32:57;9.37;;;8.43;;
77581;SDS011;66726;52.388;9.986;2023-02-24T14:35:27;8.23;;;6.80;;
77581;SDS011;66726;52.388;9.986;2023-02-24T14:38:01;7.43;;;6.72;;
77581;SDS011;66726;52.388;9.986;2023-02-24T14:40:31;7.43;;;6.83;;
77581;SDS011;66726;52.388;9.986;2023-02-24T14:42:59;9.40;;;7.47;;
77581;SDS011;66726;52.388;9.986;2023-02-24T14:45:28;8.30;;;7.40;;
77581;SDS011;66726;52.388;9.986;2023-02-24T14:47:58;8.27;;;7.50;;
77581;SDS011;66726;52.388;9.986;2023-02-24T14:50:27;7.80;;;6.78;;
77581;SDS011;66726;52.388;9.986;2023-02-24T14:53:00;8.07;;;7.38;;
77581;SDS011;66726;52.388;9.986;2023-02-24T14:55:36;8.05;;;7.30;;
77581;SDS011;66726;52.388;9.986;2023-02-24T14:58:10;8.63;;;7.82;;
77581;SDS011;66726;52.388;9.986;2023-02-24T15:00:45;8.88;;;7.97;;
77581;SDS011;66726;52.388;9.986;2023-02-24T15:03:21;13.77;;;12.43;;
77581;SDS011;66726;52.388;9.986;2023-02-24T15:05:55;10.15;;;8.20;;
77581;SDS011;66726;52.388;9.986;2023-02-24T15:08:30;10.40;;;9.38;;
77581;SDS011;66726;52.388;9.986;2023-02-24T15:11:10;13.17;;;9.03;;
77581;SDS011;66726;52.388;9.986;2023-02-24T15:13:49;9.45;;;8.45;;
77581;SDS011;66726;52.388;9.986;2023-02-24T15:16:22;9.30;;;8.30;;
77581;SDS011;66726;52.388;9.986;2023-02-24T15:18:56;9.13;;;7.60;;
77581;SDS011;66726;52.388;9.986;2023-02-24T15:21:27;13.85;;;9.13;;
77581;SDS011;66726;52.388;9.986;2023-02-24T15:23:58;8.40;;;7.35;;
77581;SDS011;66726;52.388;9.986;2023-02-24T15:26:32;10.88;;;8.43;;
77581;SDS011;66726;52.388;9.986;2023-02-24T15:29:02;10.77;;;8.40;;
77581;SDS011;66726;52.388;9.986;2023-02-24T15:31:45;11.88;;;8.07;;
77581;SDS011;66726;52.388;9.986;2023-02-24T15:34:16;11.15;;;8.27;;
77581;SDS011;66726;52.388;9.986;2023-02-24T15:36:47;9.80;;;8.05;;
77581;SDS011;66726;52.388;9.986;2023-02-24T15:39:20;11.15;;;8.60;;
77581;SDS011;66726;52.388;9.986;2023-02-24T15:42:04;9.75;;;8.43;;